sensor_id;sensor_type;location;lat;lon;timestamp;P1;durP1;ratioP1;P2;durP2;ratioP2
63836;SDS011;49991;50.518;30.486;2022-08-21T00:01:16;18.42;;;6.15;;
63836;SDS011;49991;50.518;30.486;2022-08-21T00:03:45;18.63;;;5.80;;
63836;SDS011;49991;50.518;30.486;2022-08-21T00:06:12;14.05;;;6.40;;
63836;SDS011;49991;50.518;30.486;2022-08-21T00:08:39;24.35;;;6.60;;
63836;SDS011;49991;50.518;30.486;2022-08-21T00:11:06;23.52;;;6.65;;
63836;SDS011;49991;50.518;30.486;2022-08-21T00:13:33;16.83;;;6.68;;
63836;SDS011;49991;50.518;30.486;2022-08-21T00:16:02;15.80;;;6.30;;
63836;SDS011;49991;50.518;30.486;2022-08-21T00:18:30;18.50;;;6.03;;
63836;SDS011;49991;50.518;30.486;2022-08-21T00:20:57;19.05;;;6.45;;
63836;SDS011;49991;50.518;30.486;2022-08-21T00:23:24;21.77;;;6.78;;
63836;SDS011;49991;50.518;30.486;2022-08-21T00:25:51;21.65;;;5.97;;
63836;SDS011;49991;50.518;30.486;2022-08-21T00:28:17;12.77;;;5.50;;
63836;SDS011;49991;50.518;30.486;2022-08-21T00:30:44;16.30;;;6.15;;
63836;SDS011;49991;50.518;30.486;2022-08-21T00:33:12;20.15;;;6.20;;
63836;SDS011;49991;50.518;30.486;2022-08-21T00:35:40;23.15;;;6.78;;
63836;SDS011;49991;50.518;30.486;2022-08-21T00:38:08;12.77;;;6.00;;
63836;SDS011;49991;50.518;30.486;2022-08-21T00:40:37;19.38;;;5.60;;
63836;SDS011;49991;50.518;30.486;2022-08-21T00:43:08;26.58;;;6.40;;
63836;SDS011;49991;50.518;30.486;2022-08-21T00:45:36;16.00;;;5.70;;
63836;SDS011;49991;50.518;30.486;2022-08-21T00:48:03;21.30;;;6.50;;
63836;SDS011;49991;50.518;30.486;2022-08-21T00:50:32;16.60;;;6.18;;
63836;SDS011;49991;50.518;30.486;2022-08-21T00:53:02;18.38;;;5.47;;
63836;SDS011;49991;50.518;30.486;2022-08-21T00:55:31;20.65;;;5.68;;
63836;SDS011;49991;50.518;30.486;2022-08-21T00:57:59;14.45;;;6.00;;
63836;SDS011;49991;50.518;30.486;2022-08-21T01:00:29;19.50;;;6.00;;
63836;SDS011;49991;50.518;30.486;2022-08-21T01:03:00;15.80;;;5.90;;
63836;SDS011;49991;50.518;30.486;2022-08-21T01:05:32;18.52;;;5.43;;
63836;SDS011;49991;50.518;30.486;2022-08-21T01:07:59;14.95;;;6.30;;
63836;SDS011;49991;50.518;30.486;2022-08-21T01:10:26;16.63;;;5.70;;
63836;SDS011;49991;50.518;30.486;2022-08-21T01:12:54;16.15;;;5.53;;
63836;SDS011;49991;50.518;30.486;2022-08-21T01:15:23;14.07;;;6.03;;
63836;SDS011;49991;50.518;30.486;2022-08-21T01:17:53;16.27;;;6.45;;
63836;SDS011;49991;50.518;30.486;2022-08-21T01:20:20;21.35;;;5.93;;
63836;SDS011;49991;50.518;30.486;2022-08-21T01:22:48;20.05;;;6.30;;
63836;SDS011;49991;50.518;30.486;2022-08-21T01:25:15;18.17;;;5.53;;
63836;SDS011;49991;50.518;30.486;2022-08-21T01:27:44;18.05;;;5.90;;
63836;SDS011;49991;50.518;30.486;2022-08-21T01:30:12;20.98;;;6.82;;
63836;SDS011;49991;50.518;30.486;2022-08-21T01:32:42;14.98;;;5.60;;
63836;SDS011;49991;50.518;30.486;2022-08-21T01:35:10;14.40;;;5.53;;
63836;SDS011;49991;50.518;30.486;2022-08-21T01:37:38;20.48;;;5.80;;
63836;SDS011;49991;50.518;30.486;2022-08-21T01:40:07;13.98;;;6.18;;
63836;SDS011;49991;50.518;30.486;2022-08-21T01:42:35;23.48;;;6.53;;
63836;SDS011;49991;50.518;30.486;2022-08-21T01:45:03;16.00;;;5.35;;
63836;SDS011;49991;50.518;30.486;2022-08-21T01:47:30;14.80;;;5.22;;
63836;SDS011;49991;50.518;30.486;2022-08-21T01:49:57;14.57;;;5.43;;
63836;SDS011;49991;50.518;30.486;2022-08-21T01:52:24;21.15;;;5.45;;
63836;SDS011;49991;50.518;30.486;2022-08-21T01:54:51;14.15;;;5.65;;
63836;SDS011;49991;50.518;30.486;2022-08-21T01:57:20;17.38;;;5.63;;
63836;SDS011;49991;50.518;30.486;2022-08-21T01:59:46;17.65;;;6.18;;
63836;SDS011;49991;50.518;30.486;2022-08-21T02:02:13;20.13;;;5.50;;
63836;SDS011;49991;50.518;30.486;2022-08-21T02:04:40;16.17;;;5.10;;
63836;SDS011;49991;50.518;30.486;2022-08-21T02:07:06;20.88;;;6.10;;
63836;SDS011;49991;50.518;30.486;2022-08-21T02:09:33;17.55;;;5.25;;
63836;SDS011;49991;50.518;30.486;2022-08-21T02:12:00;11.35;;;4.55;;
63836;SDS011;49991;50.518;30.486;2022-08-21T02:14:28;18.75;;;5.55;;
63836;SDS011;49991;50.518;30.486;2022-08-21T02:16:55;16.60;;;5.30;;
63836;SDS011;49991;50.518;30.486;2022-08-21T02:19:22;16.33;;;5.82;;
63836;SDS011;49991;50.518;30.486;2022-08-21T02:21:48;17.75;;;5.28;;
63836;SDS011;49991;50.518;30.486;2022-08-21T02:24:15;20.25;;;5.68;;
63836;SDS011;49991;50.518;30.486;2022-08-21T02:26:42;18.52;;;6.00;;
63836;SDS011;49991;50.518;30.486;2022-08-21T02:29:08;15.23;;;6.03;;
63836;SDS011;49991;50.518;30.486;2022-08-21T02:31:36;22.27;;;6.28;;
63836;SDS011;49991;50.518;30.486;2022-08-21T02:34:03;16.77;;;5.82;;
63836;SDS011;49991;50.518;30.486;2022-08-21T02:36:30;19.60;;;5.80;;
63836;SDS011;49991;50.518;30.486;2022-08-21T02:38:56;21.02;;;5.43;;
63836;SDS011;49991;50.518;30.486;2022-08-21T02:41:23;18.70;;;5.05;;
63836;SDS011;49991;50.518;30.486;2022-08-21T02:43:50;18.10;;;5.53;;
63836;SDS011;49991;50.518;30.486;2022-08-21T02:46:18;18.95;;;5.57;;
63836;SDS011;49991;50.518;30.486;2022-08-21T02:48:48;13.35;;;5.45;;
63836;SDS011;49991;50.518;30.486;2022-08-21T02:51:16;16.88;;;5.22;;
63836;SDS011;49991;50.518;30.486;2022-08-21T02:53:45;14.25;;;5.85;;
63836;SDS011;49991;50.518;30.486;2022-08-21T02:56:14;15.18;;;5.20;;
63836;SDS011;49991;50.518;30.486;2022-08-21T02:58:43;14.15;;;5.82;;
63836;SDS011;49991;50.518;30.486;2022-08-21T03:01:11;14.90;;;5.22;;
63836;SDS011;49991;50.518;30.486;2022-08-21T03:03:40;16.42;;;4.63;;
63836;SDS011;49991;50.518;30.486;2022-08-21T03:06:09;13.20;;;4.50;;
63836;SDS011;49991;50.518;30.486;2022-08-21T03:08:38;19.48;;;5.57;;
63836;SDS011;49991;50.518;30.486;2022-08-21T03:11:05;15.40;;;5.07;;
63836;SDS011;49991;50.518;30.486;2022-08-21T03:13:31;14.50;;;5.05;;
63836;SDS011;49991;50.518;30.486;2022-08-21T03:15:58;19.73;;;5.88;;
63836;SDS011;49991;50.518;30.486;2022-08-21T03:18:25;23.65;;;6.03;;
63836;SDS011;49991;50.518;30.486;2022-08-21T03:20:51;22.63;;;6.35;;
63836;SDS011;49991;50.518;30.486;2022-08-21T03:23:19;17.67;;;5.35;;
63836;SDS011;49991;50.518;30.486;2022-08-21T03:25:46;16.73;;;5.30;;
63836;SDS011;49991;50.518;30.486;2022-08-21T03:28:20;15.20;;;5.20;;
63836;SDS011;49991;50.518;30.486;2022-08-21T03:30:48;21.10;;;5.60;;
63836;SDS011;49991;50.518;30.486;2022-08-21T03:33:17;17.88;;;5.18;;
63836;SDS011;49991;50.518;30.486;2022-08-21T03:35:46;17.45;;;5.68;;
63836;SDS011;49991;50.518;30.486;2022-08-21T03:38:15;14.73;;;4.82;;
63836;SDS011;49991;50.518;30.486;2022-08-21T03:40:43;18.65;;;5.80;;
63836;SDS011;49991;50.518;30.486;2022-08-21T03:43:10;15.75;;;5.22;;
63836;SDS011;49991;50.518;30.486;2022-08-21T03:45:37;17.75;;;5.57;;
63836;SDS011;49991;50.518;30.486;2022-08-21T03:48:04;22.13;;;5.28;;
63836;SDS011;49991;50.518;30.486;2022-08-21T03:50:33;22.98;;;6.10;;
63836;SDS011;49991;50.518;30.486;2022-08-21T03:53:01;15.70;;;5.38;;
63836;SDS011;49991;50.518;30.486;2022-08-21T03:55:29;24.25;;;6.40;;
63836;SDS011;49991;50.518;30.486;2022-08-21T03:57:57;18.80;;;5.30;;
63836;SDS011;49991;50.518;30.486;2022-08-21T04:00:24;17.60;;;5.65;;
63836;SDS011;49991;50.518;30.486;2022-08-21T04:02:50;15.55;;;5.45;;
63836;SDS011;49991;50.518;30.486;2022-08-21T04:05:18;12.40;;;5.32;;
63836;SDS011;49991;50.518;30.486;2022-08-21T04:07:52;17.48;;;5.13;;
63836;SDS011;49991;50.518;30.486;2022-08-21T04:10:19;16.75;;;5.07;;
63836;SDS011;49991;50.518;30.486;2022-08-21T04:12:46;13.85;;;5.05;;
63836;SDS011;49991;50.518;30.486;2022-08-21T04:15:14;18.00;;;4.90;;
63836;SDS011;49991;50.518;30.486;2022-08-21T04:17:41;17.75;;;5.75;;
63836;SDS011;49991;50.518;30.486;2022-08-21T04:20:08;13.90;;;4.82;;
63836;SDS011;49991;50.518;30.486;2022-08-21T04:22:35;20.52;;;5.35;;
63836;SDS011;49991;50.518;30.486;2022-08-21T04:25:02;18.33;;;5.65;;
63836;SDS011;49991;50.518;30.486;2022-08-21T04:27:29;21.17;;;5.93;;
63836;SDS011;49991;50.518;30.486;2022-08-21T04:29:55;17.48;;;4.78;;
63836;SDS011;49991;50.518;30.486;2022-08-21T04:32:24;19.50;;;5.55;;
63836;SDS011;49991;50.518;30.486;2022-08-21T04:34:57;16.42;;;5.13;;
63836;SDS011;49991;50.518;30.486;2022-08-21T04:37:24;16.60;;;4.93;;
63836;SDS011;49991;50.518;30.486;2022-08-21T04:39:51;16.38;;;5.13;;
63836;SDS011;49991;50.518;30.486;2022-08-21T04:42:18;15.57;;;4.93;;
63836;SDS011;49991;50.518;30.486;2022-08-21T04:44:45;12.70;;;5.30;;
63836;SDS011;49991;50.518;30.486;2022-08-21T04:47:14;18.52;;;4.75;;
63836;SDS011;49991;50.518;30.486;2022-08-21T04:49:42;16.65;;;4.95;;
63836;SDS011;49991;50.518;30.486;2022-08-21T04:52:09;18.75;;;4.93;;
63836;SDS011;49991;50.518;30.486;2022-08-21T04:54:36;12.02;;;4.45;;
63836;SDS011;49991;50.518;30.486;2022-08-21T04:57:04;20.00;;;4.65;;
63836;SDS011;49991;50.518;30.486;2022-08-21T04:59:36;15.45;;;4.43;;
63836;SDS011;49991;50.518;30.486;2022-08-21T05:02:06;19.30;;;4.72;;
63836;SDS011;49991;50.518;30.486;2022-08-21T05:04:36;21.73;;;5.22;;
63836;SDS011;49991;50.518;30.486;2022-08-21T05:07:09;20.40;;;4.85;;
63836;SDS011;49991;50.518;30.486;2022-08-21T05:09:38;21.02;;;5.05;;
63836;SDS011;49991;50.518;30.486;2022-08-21T05:12:05;14.23;;;4.43;;
63836;SDS011;49991;50.518;30.486;2022-08-21T05:14:32;21.63;;;5.65;;
63836;SDS011;49991;50.518;30.486;2022-08-21T05:16:59;20.90;;;5.32;;
63836;SDS011;49991;50.518;30.486;2022-08-21T05:19:26;16.30;;;4.63;;
63836;SDS011;49991;50.518;30.486;2022-08-21T05:21:53;26.40;;;5.28;;
63836;SDS011;49991;50.518;30.486;2022-08-21T05:24:21;16.88;;;4.35;;
63836;SDS011;49991;50.518;30.486;2022-08-21T05:26:48;18.17;;;4.60;;
63836;SDS011;49991;50.518;30.486;2022-08-21T05:29:15;12.77;;;4.70;;
63836;SDS011;49991;50.518;30.486;2022-08-21T05:31:42;13.07;;;4.65;;
63836;SDS011;49991;50.518;30.486;2022-08-21T05:34:10;17.13;;;4.85;;
63836;SDS011;49991;50.518;30.486;2022-08-21T05:36:37;19.75;;;4.72;;
63836;SDS011;49991;50.518;30.486;2022-08-21T05:39:03;16.27;;;4.10;;
63836;SDS011;49991;50.518;30.486;2022-08-21T05:41:31;16.98;;;4.00;;
63836;SDS011;49991;50.518;30.486;2022-08-21T05:43:58;13.55;;;5.03;;
63836;SDS011;49991;50.518;30.486;2022-08-21T05:46:25;19.88;;;5.53;;
63836;SDS011;49991;50.518;30.486;2022-08-21T05:48:51;16.88;;;5.20;;
63836;SDS011;49991;50.518;30.486;2022-08-21T05:51:18;15.70;;;4.57;;
63836;SDS011;49991;50.518;30.486;2022-08-21T05:53:45;22.52;;;4.40;;
63836;SDS011;49991;50.518;30.486;2022-08-21T05:56:13;11.88;;;4.50;;
63836;SDS011;49991;50.518;30.486;2022-08-21T05:58:41;17.02;;;4.63;;
63836;SDS011;49991;50.518;30.486;2022-08-21T06:01:08;14.52;;;4.82;;
63836;SDS011;49991;50.518;30.486;2022-08-21T06:03:37;19.73;;;4.20;;
63836;SDS011;49991;50.518;30.486;2022-08-21T06:06:06;15.93;;;5.53;;
63836;SDS011;49991;50.518;30.486;2022-08-21T06:08:32;14.77;;;4.32;;
63836;SDS011;49991;50.518;30.486;2022-08-21T06:11:00;15.48;;;4.75;;
63836;SDS011;49991;50.518;30.486;2022-08-21T06:13:28;14.68;;;4.53;;
63836;SDS011;49991;50.518;30.486;2022-08-21T06:16:04;16.50;;;4.63;;
63836;SDS011;49991;50.518;30.486;2022-08-21T06:18:33;19.02;;;4.75;;
63836;SDS011;49991;50.518;30.486;2022-08-21T06:21:01;14.25;;;4.00;;
63836;SDS011;49991;50.518;30.486;2022-08-21T06:23:28;15.25;;;4.50;;
63836;SDS011;49991;50.518;30.486;2022-08-21T06:25:55;20.70;;;4.50;;
63836;SDS011;49991;50.518;30.486;2022-08-21T06:28:22;16.42;;;4.75;;
63836;SDS011;49991;50.518;30.486;2022-08-21T06:30:49;12.55;;;4.40;;
63836;SDS011;49991;50.518;30.486;2022-08-21T06:33:17;15.57;;;4.47;;
63836;SDS011;49991;50.518;30.486;2022-08-21T06:35:43;17.65;;;4.60;;
63836;SDS011;49991;50.518;30.486;2022-08-21T06:38:10;21.15;;;5.13;;
63836;SDS011;49991;50.518;30.486;2022-08-21T06:40:37;16.88;;;4.90;;
63836;SDS011;49991;50.518;30.486;2022-08-21T06:43:05;20.70;;;4.88;;
63836;SDS011;49991;50.518;30.486;2022-08-21T06:45:33;11.70;;;4.10;;
63836;SDS011;49991;50.518;30.486;2022-08-21T06:48:00;20.45;;;4.78;;
63836;SDS011;49991;50.518;30.486;2022-08-21T06:50:28;18.73;;;5.13;;
63836;SDS011;49991;50.518;30.486;2022-08-21T06:52:59;19.58;;;5.35;;
63836;SDS011;49991;50.518;30.486;2022-08-21T06:55:26;17.92;;;5.60;;
63836;SDS011;49991;50.518;30.486;2022-08-21T06:57:53;17.10;;;4.88;;
63836;SDS011;49991;50.518;30.486;2022-08-21T07:00:20;24.30;;;5.15;;
63836;SDS011;49991;50.518;30.486;2022-08-21T07:02:47;23.67;;;6.05;;
63836;SDS011;49991;50.518;30.486;2022-08-21T07:05:14;19.50;;;4.93;;
63836;SDS011;49991;50.518;30.486;2022-08-21T07:07:42;19.77;;;5.07;;
63836;SDS011;49991;50.518;30.486;2022-08-21T07:10:09;22.42;;;5.18;;
63836;SDS011;49991;50.518;30.486;2022-08-21T07:12:36;20.10;;;4.88;;
63836;SDS011;49991;50.518;30.486;2022-08-21T07:15:03;16.95;;;5.07;;
63836;SDS011;49991;50.518;30.486;2022-08-21T07:17:30;16.30;;;5.10;;
63836;SDS011;49991;50.518;30.486;2022-08-21T07:19:57;17.65;;;5.15;;
63836;SDS011;49991;50.518;30.486;2022-08-21T07:22:23;17.42;;;5.38;;
63836;SDS011;49991;50.518;30.486;2022-08-21T07:24:53;12.13;;;4.68;;
63836;SDS011;49991;50.518;30.486;2022-08-21T07:27:20;20.30;;;5.32;;
63836;SDS011;49991;50.518;30.486;2022-08-21T07:29:47;19.80;;;4.82;;
63836;SDS011;49991;50.518;30.486;2022-08-21T07:32:14;15.98;;;5.25;;
63836;SDS011;49991;50.518;30.486;2022-08-21T07:34:41;15.82;;;4.85;;
63836;SDS011;49991;50.518;30.486;2022-08-21T07:37:07;20.13;;;5.47;;
63836;SDS011;49991;50.518;30.486;2022-08-21T07:39:34;24.27;;;5.63;;
63836;SDS011;49991;50.518;30.486;2022-08-21T07:42:03;16.60;;;4.97;;
63836;SDS011;49991;50.518;30.486;2022-08-21T07:44:29;16.00;;;4.70;;
63836;SDS011;49991;50.518;30.486;2022-08-21T07:46:56;15.13;;;5.00;;
63836;SDS011;49991;50.518;30.486;2022-08-21T07:49:23;17.73;;;5.03;;
63836;SDS011;49991;50.518;30.486;2022-08-21T07:51:50;21.02;;;4.70;;
63836;SDS011;49991;50.518;30.486;2022-08-21T07:54:17;17.63;;;5.30;;
63836;SDS011;49991;50.518;30.486;2022-08-21T07:56:43;20.80;;;5.00;;
63836;SDS011;49991;50.518;30.486;2022-08-21T07:59:12;12.02;;;4.50;;
63836;SDS011;49991;50.518;30.486;2022-08-21T08:01:38;15.98;;;5.05;;
63836;SDS011;49991;50.518;30.486;2022-08-21T08:04:05;23.25;;;5.95;;
63836;SDS011;49991;50.518;30.486;2022-08-21T08:06:32;24.15;;;5.78;;
63836;SDS011;49991;50.518;30.486;2022-08-21T08:08:59;22.98;;;5.07;;
63836;SDS011;49991;50.518;30.486;2022-08-21T08:11:28;21.98;;;5.35;;
63836;SDS011;49991;50.518;30.486;2022-08-21T08:13:55;16.13;;;5.13;;
63836;SDS011;49991;50.518;30.486;2022-08-21T08:16:24;15.38;;;4.80;;
63836;SDS011;49991;50.518;30.486;2022-08-21T08:18:51;18.45;;;5.00;;
63836;SDS011;49991;50.518;30.486;2022-08-21T08:21:19;17.35;;;4.82;;
63836;SDS011;49991;50.518;30.486;2022-08-21T08:23:46;22.73;;;5.75;;
63836;SDS011;49991;50.518;30.486;2022-08-21T08:26:13;17.33;;;5.20;;
63836;SDS011;49991;50.518;30.486;2022-08-21T08:28:40;21.50;;;5.22;;
63836;SDS011;49991;50.518;30.486;2022-08-21T08:31:07;19.25;;;4.60;;
63836;SDS011;49991;50.518;30.486;2022-08-21T08:33:35;21.95;;;5.13;;
63836;SDS011;49991;50.518;30.486;2022-08-21T08:36:02;25.45;;;4.78;;
63836;SDS011;49991;50.518;30.486;2022-08-21T08:38:29;16.85;;;4.95;;
63836;SDS011;49991;50.518;30.486;2022-08-21T08:40:58;22.75;;;6.07;;
63836;SDS011;49991;50.518;30.486;2022-08-21T08:43:28;21.63;;;4.80;;
63836;SDS011;49991;50.518;30.486;2022-08-21T08:45:58;22.00;;;4.90;;
63836;SDS011;49991;50.518;30.486;2022-08-21T08:48:34;19.70;;;5.80;;
63836;SDS011;49991;50.518;30.486;2022-08-21T08:51:12;21.05;;;5.15;;
63836;SDS011;49991;50.518;30.486;2022-08-21T08:53:45;17.15;;;4.38;;
63836;SDS011;49991;50.518;30.486;2022-08-21T08:56:15;18.45;;;4.75;;
63836;SDS011;49991;50.518;30.486;2022-08-21T08:58:48;22.25;;;5.10;;
63836;SDS011;49991;50.518;30.486;2022-08-21T09:01:17;21.30;;;4.82;;
63836;SDS011;49991;50.518;30.486;2022-08-21T09:03:47;20.65;;;4.45;;
63836;SDS011;49991;50.518;30.486;2022-08-21T09:06:24;16.77;;;4.65;;
63836;SDS011;49991;50.518;30.486;2022-08-21T09:09:00;24.75;;;5.43;;
63836;SDS011;49991;50.518;30.486;2022-08-21T09:11:36;15.90;;;4.60;;
63836;SDS011;49991;50.518;30.486;2022-08-21T09:14:08;18.70;;;4.07;;
63836;SDS011;49991;50.518;30.486;2022-08-21T09:16:46;28.08;;;5.03;;
63836;SDS011;49991;50.518;30.486;2022-08-21T09:19:27;20.17;;;4.97;;
63836;SDS011;49991;50.518;30.486;2022-08-21T09:22:07;24.50;;;5.07;;
63836;SDS011;49991;50.518;30.486;2022-08-21T09:24:44;21.27;;;4.80;;
63836;SDS011;49991;50.518;30.486;2022-08-21T09:27:20;17.55;;;5.60;;
63836;SDS011;49991;50.518;30.486;2022-08-21T09:29:48;20.38;;;4.65;;
63836;SDS011;49991;50.518;30.486;2022-08-21T09:32:20;24.75;;;4.65;;
63836;SDS011;49991;50.518;30.486;2022-08-21T09:34:56;20.70;;;4.78;;
63836;SDS011;49991;50.518;30.486;2022-08-21T09:37:25;16.95;;;5.03;;
63836;SDS011;49991;50.518;30.486;2022-08-21T09:39:54;19.73;;;5.15;;
63836;SDS011;49991;50.518;30.486;2022-08-21T09:42:24;19.35;;;4.40;;
63836;SDS011;49991;50.518;30.486;2022-08-21T09:45:04;18.67;;;4.20;;
63836;SDS011;49991;50.518;30.486;2022-08-21T09:47:35;22.63;;;4.90;;
63836;SDS011;49991;50.518;30.486;2022-08-21T09:50:11;14.32;;;4.43;;
63836;SDS011;49991;50.518;30.486;2022-08-21T09:52:44;16.05;;;4.80;;
63836;SDS011;49991;50.518;30.486;2022-08-21T09:55:18;21.67;;;3.83;;
63836;SDS011;49991;50.518;30.486;2022-08-21T09:58:06;21.77;;;4.80;;
63836;SDS011;49991;50.518;30.486;2022-08-21T10:00:34;22.23;;;4.13;;
63836;SDS011;49991;50.518;30.486;2022-08-21T10:03:08;21.02;;;4.50;;
63836;SDS011;49991;50.518;30.486;2022-08-21T10:05:38;22.67;;;4.38;;
63836;SDS011;49991;50.518;30.486;2022-08-21T10:08:16;20.58;;;4.55;;
63836;SDS011;49991;50.518;30.486;2022-08-21T10:10:44;12.95;;;4.13;;
63836;SDS011;49991;50.518;30.486;2022-08-21T10:13:12;16.85;;;4.28;;
63836;SDS011;49991;50.518;30.486;2022-08-21T10:15:46;15.65;;;4.32;;
63836;SDS011;49991;50.518;30.486;2022-08-21T10:18:19;13.55;;;4.00;;
63836;SDS011;49991;50.518;30.486;2022-08-21T10:20:57;17.13;;;3.88;;
63836;SDS011;49991;50.518;30.486;2022-08-21T10:23:38;15.48;;;3.70;;
63836;SDS011;49991;50.518;30.486;2022-08-21T10:26:14;14.57;;;4.18;;
63836;SDS011;49991;50.518;30.486;2022-08-21T10:28:59;19.83;;;4.10;;
63836;SDS011;49991;50.518;30.486;2022-08-21T10:34:09;25.98;;;6.13;;
63836;SDS011;49991;50.518;30.486;2022-08-21T10:36:50;52.50;;;6.35;;
63836;SDS011;49991;50.518;30.486;2022-08-21T10:39:34;19.67;;;4.55;;
63836;SDS011;49991;50.518;30.486;2022-08-21T10:42:13;21.73;;;4.72;;
63836;SDS011;49991;50.518;30.486;2022-08-21T10:44:52;19.98;;;3.63;;
63836;SDS011;49991;50.518;30.486;2022-08-21T10:47:31;21.23;;;4.18;;
63836;SDS011;49991;50.518;30.486;2022-08-21T10:50:03;15.00;;;3.65;;
63836;SDS011;49991;50.518;30.486;2022-08-21T10:52:44;21.52;;;4.32;;
63836;SDS011;49991;50.518;30.486;2022-08-21T10:55:22;14.07;;;3.40;;
63836;SDS011;49991;50.518;30.486;2022-08-21T10:57:54;12.00;;;3.08;;
63836;SDS011;49991;50.518;30.486;2022-08-21T11:00:26;14.55;;;4.47;;
63836;SDS011;49991;50.518;30.486;2022-08-21T11:02:57;16.17;;;3.83;;
63836;SDS011;49991;50.518;30.486;2022-08-21T11:05:30;18.00;;;3.83;;
63836;SDS011;49991;50.518;30.486;2022-08-21T11:08:02;19.10;;;5.07;;
63836;SDS011;49991;50.518;30.486;2022-08-21T11:10:36;14.93;;;3.97;;
63836;SDS011;49991;50.518;30.486;2022-08-21T11:13:11;20.38;;;4.03;;
63836;SDS011;49991;50.518;30.486;2022-08-21T11:15:45;13.63;;;3.60;;
63836;SDS011;49991;50.518;30.486;2022-08-21T11:18:20;19.10;;;3.83;;
63836;SDS011;49991;50.518;30.486;2022-08-21T11:20:51;16.17;;;4.05;;
63836;SDS011;49991;50.518;30.486;2022-08-21T11:23:28;19.33;;;4.00;;
63836;SDS011;49991;50.518;30.486;2022-08-21T11:26:04;17.45;;;4.00;;
63836;SDS011;49991;50.518;30.486;2022-08-21T11:28:36;19.05;;;3.78;;
63836;SDS011;49991;50.518;30.486;2022-08-21T11:31:12;20.13;;;4.60;;
63836;SDS011;49991;50.518;30.486;2022-08-21T11:33:53;17.10;;;4.45;;
63836;SDS011;49991;50.518;30.486;2022-08-21T11:36:31;13.90;;;3.97;;
63836;SDS011;49991;50.518;30.486;2022-08-21T11:39:19;19.75;;;4.70;;
63836;SDS011;49991;50.518;30.486;2022-08-21T11:41:54;21.33;;;4.20;;
63836;SDS011;49991;50.518;30.486;2022-08-21T11:44:30;17.30;;;4.07;;
63836;SDS011;49991;50.518;30.486;2022-08-21T11:47:11;17.23;;;4.22;;
63836;SDS011;49991;50.518;30.486;2022-08-21T11:49:50;19.15;;;4.57;;
63836;SDS011;49991;50.518;30.486;2022-08-21T11:52:28;18.48;;;4.97;;
63836;SDS011;49991;50.518;30.486;2022-08-21T11:55:03;19.52;;;4.82;;
63836;SDS011;49991;50.518;30.486;2022-08-21T11:57:36;12.23;;;3.50;;
63836;SDS011;49991;50.518;30.486;2022-08-21T12:00:11;13.90;;;3.92;;
63836;SDS011;49991;50.518;30.486;2022-08-21T12:02:42;15.23;;;3.90;;
63836;SDS011;49991;50.518;30.486;2022-08-21T12:05:22;16.83;;;3.97;;
63836;SDS011;49991;50.518;30.486;2022-08-21T12:08:00;19.73;;;4.38;;
63836;SDS011;49991;50.518;30.486;2022-08-21T12:10:33;17.45;;;3.78;;
63836;SDS011;49991;50.518;30.486;2022-08-21T12:13:09;13.82;;;3.85;;
63836;SDS011;49991;50.518;30.486;2022-08-21T12:15:39;18.40;;;4.53;;
63836;SDS011;49991;50.518;30.486;2022-08-21T12:18:06;21.35;;;4.72;;
63836;SDS011;49991;50.518;30.486;2022-08-21T12:20:57;17.40;;;3.58;;
63836;SDS011;49991;50.518;30.486;2022-08-21T12:23:28;21.63;;;4.18;;
63836;SDS011;49991;50.518;30.486;2022-08-21T12:26:03;11.93;;;3.47;;
63836;SDS011;49991;50.518;30.486;2022-08-21T12:28:42;19.63;;;4.32;;
63836;SDS011;49991;50.518;30.486;2022-08-21T12:31:17;18.88;;;4.38;;
63836;SDS011;49991;50.518;30.486;2022-08-21T12:33:54;12.07;;;4.18;;
63836;SDS011;49991;50.518;30.486;2022-08-21T12:36:23;17.63;;;4.43;;
63836;SDS011;49991;50.518;30.486;2022-08-21T12:38:55;13.50;;;3.95;;
63836;SDS011;49991;50.518;30.486;2022-08-21T12:41:27;13.93;;;3.88;;
63836;SDS011;49991;50.518;30.486;2022-08-21T12:43:59;19.45;;;4.28;;
63836;SDS011;49991;50.518;30.486;2022-08-21T12:46:36;19.33;;;4.22;;
63836;SDS011;49991;50.518;30.486;2022-08-21T12:49:07;12.65;;;4.00;;
63836;SDS011;49991;50.518;30.486;2022-08-21T12:51:49;20.02;;;4.90;;
63836;SDS011;49991;50.518;30.486;2022-08-21T12:54:24;14.02;;;3.72;;
63836;SDS011;49991;50.518;30.486;2022-08-21T12:56:58;15.73;;;3.95;;
63836;SDS011;49991;50.518;30.486;2022-08-21T12:59:27;16.35;;;4.38;;
63836;SDS011;49991;50.518;30.486;2022-08-21T13:01:54;20.63;;;4.00;;
63836;SDS011;49991;50.518;30.486;2022-08-21T13:04:23;13.30;;;3.60;;
63836;SDS011;49991;50.518;30.486;2022-08-21T13:09:26;21.58;;;4.00;;
63836;SDS011;49991;50.518;30.486;2022-08-21T13:11:55;22.55;;;4.38;;
63836;SDS011;49991;50.518;30.486;2022-08-21T13:14:25;26.00;;;4.47;;
63836;SDS011;49991;50.518;30.486;2022-08-21T13:16:55;17.38;;;4.65;;
63836;SDS011;49991;50.518;30.486;2022-08-21T13:19:24;12.52;;;3.78;;
63836;SDS011;49991;50.518;30.486;2022-08-21T13:21:51;19.63;;;3.95;;
63836;SDS011;49991;50.518;30.486;2022-08-21T13:24:20;24.58;;;4.15;;
63836;SDS011;49991;50.518;30.486;2022-08-21T13:26:49;20.08;;;4.32;;
63836;SDS011;49991;50.518;30.486;2022-08-21T13:29:17;16.88;;;4.78;;
63836;SDS011;49991;50.518;30.486;2022-08-21T13:31:48;20.45;;;4.10;;
63836;SDS011;49991;50.518;30.486;2022-08-21T13:34:18;20.70;;;3.70;;
63836;SDS011;49991;50.518;30.486;2022-08-21T13:36:46;22.13;;;3.78;;
63836;SDS011;49991;50.518;30.486;2022-08-21T13:39:14;18.77;;;4.82;;
63836;SDS011;49991;50.518;30.486;2022-08-21T13:41:44;20.58;;;4.32;;
63836;SDS011;49991;50.518;30.486;2022-08-21T13:44:14;13.40;;;3.95;;
63836;SDS011;49991;50.518;30.486;2022-08-21T13:46:43;15.00;;;3.78;;
63836;SDS011;49991;50.518;30.486;2022-08-21T13:49:13;18.88;;;4.43;;
63836;SDS011;49991;50.518;30.486;2022-08-21T13:51:42;17.70;;;4.25;;
63836;SDS011;49991;50.518;30.486;2022-08-21T13:54:14;13.55;;;3.85;;
63836;SDS011;49991;50.518;30.486;2022-08-21T13:56:46;19.38;;;3.95;;
63836;SDS011;49991;50.518;30.486;2022-08-21T13:59:22;16.98;;;4.10;;
63836;SDS011;49991;50.518;30.486;2022-08-21T14:01:51;19.02;;;3.65;;
63836;SDS011;49991;50.518;30.486;2022-08-21T14:04:26;28.13;;;4.38;;
63836;SDS011;49991;50.518;30.486;2022-08-21T14:06:59;19.30;;;4.30;;
63836;SDS011;49991;50.518;30.486;2022-08-21T14:09:28;18.67;;;4.68;;
63836;SDS011;49991;50.518;30.486;2022-08-21T14:11:57;21.30;;;4.32;;
63836;SDS011;49991;50.518;30.486;2022-08-21T14:14:29;18.25;;;4.20;;
63836;SDS011;49991;50.518;30.486;2022-08-21T14:17:01;19.83;;;4.32;;
63836;SDS011;49991;50.518;30.486;2022-08-21T14:19:37;21.63;;;4.35;;
63836;SDS011;49991;50.518;30.486;2022-08-21T14:22:23;22.58;;;4.82;;
63836;SDS011;49991;50.518;30.486;2022-08-21T14:24:59;20.10;;;4.00;;
63836;SDS011;49991;50.518;30.486;2022-08-21T14:27:27;19.50;;;4.65;;
63836;SDS011;49991;50.518;30.486;2022-08-21T14:29:57;16.00;;;4.07;;
63836;SDS011;49991;50.518;30.486;2022-08-21T14:32:27;18.42;;;4.50;;
63836;SDS011;49991;50.518;30.486;2022-08-21T14:34:57;21.15;;;4.97;;
63836;SDS011;49991;50.518;30.486;2022-08-21T14:37:24;18.90;;;3.75;;
63836;SDS011;49991;50.518;30.486;2022-08-21T14:39:51;22.80;;;4.93;;
63836;SDS011;49991;50.518;30.486;2022-08-21T14:42:18;19.25;;;4.45;;